Time;durP1;ratioP1;P1;durP2;ratioP2;P2;SDS_P1;SDS_P2;PMS_P1;PMS_P2;Temp;Humidity;BMP_temperature;BMP_pressure;BME280_temperature;BME280_humidity;BME280_pressure;Samples;Min_cycle;Max_cycle;Signal;HPM_P1;HPM_P2
2022/06/16 00:01:07;;;;;;;6.25;3.38;;;17.10;8.80;;;;;;5033368;28;34299;-78
2022/06/16 00:03:33;;;;;;;7.35;3.67;;;17.10;8.70;;;;;;5049205;28;35881;-77
2022/06/16 00:05:59;;;;;;;4.43;3.40;;;17.10;8.90;;;;;;5061772;28;34145;-77
2022/06/16 00:08:25;;;;;;;3.58;3.28;;;17.10;8.90;;;;;;5068286;28;34424;-77
2022/06/16 00:13:36;;;;;;;6.60;3.03;;;17.00;8.90;;;;;;5067987;28;34089;-77
2022/06/16 00:16:07;;;;;;;3.30;2.92;;;16.90;9.10;;;;;;5054613;28;34240;-77
2022/06/16 00:18:52;;;;;;;3.33;3.03;;;16.90;9.80;;;;;;5064286;28;33746;-77
2022/06/16 00:21:40;;;;;;;3.35;3.05;;;16.90;12.10;;;;;;5051253;28;34044;-77
2022/06/16 00:24:07;;;;;;;5.75;2.97;;;16.80;12.60;;;;;;5053030;28;35819;-77
2022/06/16 00:26:33;;;;;;;3.40;3.00;;;16.80;9.00;;;;;;5032401;28;34152;-77
2022/06/16 00:28:59;;;;;;;6.75;3.58;;;16.80;9.10;;;;;;5061332;28;34331;-77
2022/06/16 00:31:25;;;;;;;3.60;3.30;;;16.70;9.20;;;;;;5065009;28;34361;-77
2022/06/16 00:33:57;;;;;;;4.45;3.40;;;16.70;9.30;;;;;;5049557;28;35517;-77
2022/06/16 00:36:44;;;;;;;3.33;3.03;;;16.70;10.90;;;;;;5068590;28;34030;-77
2022/06/16 00:39:10;;;;;;;3.75;2.95;;;16.60;12.70;;;;;;5062742;28;33792;-77
2022/06/16 00:41:56;;;;;;;4.07;3.47;;;16.60;9.30;;;;;;5037779;28;34430;-77
2022/06/16 00:44:43;;;;;;;3.80;2.80;;;16.50;9.30;;;;;;5053183;28;35607;-77
2022/06/16 00:47:10;;;;;;;3.50;3.20;;;16.40;13.40;;;;;;5053634;28;34183;-78
2022/06/16 00:49:40;;;;;;;3.00;2.70;;;16.30;9.50;;;;;;5069848;28;34118;-78
2022/06/16 00:52:13;;;;;;;3.58;2.92;;;16.30;9.80;;;;;;5070738;28;33995;-77
2022/06/16 00:54:50;;;;;;;5.93;3.40;;;16.20;10.40;;;;;;5065856;28;36120;-77
2022/06/16 00:57:21;;;;;;;3.40;3.10;;;16.20;10.50;;;;;;5071798;28;34105;-77
2022/06/16 01:00:11;;;;;;;3.90;3.20;;;16.20;10.50;;;;;;5048638;28;35048;-77
2022/06/16 01:02:37;;;;;;;3.50;3.20;;;16.10;13.30;;;;;;5018401;28;34394;-77
2022/06/16 01:05:37;;;;;;;3.83;3.33;;;16.10;10.20;;;;;;5057363;28;35887;-77
2022/06/16 01:08:26;;;;;;;3.80;3.20;;;16.00;13.70;;;;;;5069855;28;33989;-77
2022/06/16 01:10:57;;;;;;;3.92;3.17;;;16.00;10.40;;;;;;5069912;28;34348;-77
2022/06/16 01:14:10;;;;;;;3.70;3.30;;;15.90;10.40;;;;;;5037615;28;34293;-77
2022/06/16 01:16:43;;;;;;;8.07;3.53;;;15.90;14.20;;;;;;5085925;28;36332;-77
2022/06/16 01:26:09;;;;;;;5.07;3.25;;;15.90;12.30;;;;;;5017453;28;34108;-77
2022/06/16 01:28:57;;;;;;;3.78;3.22;;;15.90;12.50;;;;;;5010279;28;35829;-77
2022/06/16 01:31:54;;;;;;;6.03;3.75;;;15.90;14.10;;;;;;5013032;28;34180;-77
2022/06/16 01:34:33;;;;;;;5.70;3.60;;;15.90;14.60;;;;;;4998144;28;34213;-77
2022/06/16 01:37:34;;;;;;;4.00;3.40;;;15.90;12.20;;;;;;5012687;28;34530;-77
2022/06/16 01:40:20;;;;;;;5.45;3.50;;;15.90;11.70;;;;;;5060700;28;35589;-77
2022/06/16 01:42:56;;;;;;;4.60;3.40;;;15.90;12.90;;;;;;5073259;28;33788;-77
2022/06/16 01:45:30;;;;;;;5.75;3.78;;;15.90;12.70;;;;;;5091502;28;34282;-77
2022/06/16 01:47:58;;;;;;;3.67;3.30;;;15.90;11.70;;;;;;5073150;28;34167;-77
2022/06/16 01:51:06;;;;;;;3.88;3.47;;;15.90;11.20;;;;;;5085927;28;35520;-77
2022/06/16 01:53:57;;;;;;;4.82;3.72;;;15.90;14.90;;;;;;5088043;28;34050;-77
2022/06/16 01:56:34;;;;;;;3.72;3.42;;;15.90;15.20;;;;;;5073592;28;34306;-78
2022/06/16 01:59:43;;;;;;;7.30;3.90;;;15.80;12.30;;;;;;5087371;28;34036;-77
2022/06/16 02:02:14;;;;;;;4.53;3.50;;;15.80;14.90;;;;;;5087793;28;36464;-77
2022/06/16 02:04:48;;;;;;;5.80;3.88;;;15.70;12.00;;;;;;5088752;28;34234;-77
2022/06/16 02:07:22;;;;;;;4.25;3.58;;;15.70;12.60;;;;;;5055252;28;34312;-77
2022/06/16 02:10:11;;;;;;;8.27;3.55;;;15.60;12.30;;;;;;5055069;28;34295;-78
2022/06/16 02:15:49;;;;;;;4.75;3.60;;;15.50;12.20;;;;;;5051044;28;34422;-77
2022/06/16 02:18:55;;;;;;;6.78;3.97;;;15.50;13.50;;;;;;5067239;28;34295;-77
2022/06/16 02:21:39;;;;;;;4.30;3.75;;;15.50;15.20;;;;;;5053781;28;34245;-77
2022/06/16 02:24:08;;;;;;;4.80;3.25;;;15.40;14.90;;;;;;5029442;28;35856;-77
2022/06/16 02:26:35;;;;;;;4.28;3.50;;;15.30;12.50;;;;;;5046791;28;34234;-77
2022/06/16 02:32:47;;;;;;;4.38;3.78;;;15.30;12.70;;;;;;5077332;28;34456;-77
2022/06/16 02:35:58;;;;;;;4.72;3.65;;;15.20;15.80;;;;;;5087993;28;35177;-77
2022/06/16 02:47:00;;;;;;;5.03;3.63;;;15.10;12.70;;;;;;5137137;27;61046;-76
2022/06/16 02:50:05;;;;;;;4.63;3.40;;;15.10;14.70;;;;;;5110817;27;35806;-77
2022/06/16 02:52:58;;;;;;;4.95;3.78;;;15.10;15.60;;;;;;5107746;28;34064;-77
2022/06/16 02:55:43;;;;;;;5.38;3.70;;;15.10;15.80;;;;;;5100200;27;34100;-77
2022/06/16 02:58:22;;;;;;;3.88;3.47;;;15.00;15.70;;;;;;5111622;27;34641;-77
2022/06/16 03:01:29;;;;;;;4.13;3.72;;;15.00;15.10;;;;;;5110301;27;34187;-77
2022/06/16 03:04:11;;;;;;;4.57;3.47;;;15.00;16.10;;;;;;5128849;27;34100;-77
2022/06/16 03:06:38;;;;;;;3.60;3.30;;;14.90;16.70;;;;;;5094361;27;34073;-78
2022/06/16 03:09:19;;;;;;;3.95;3.55;;;14.80;13.10;;;;;;5129516;27;34552;-78
2022/06/16 03:11:45;;;;;;;4.65;3.85;;;14.80;15.70;;;;;;5107222;27;34321;-77
2022/06/16 03:14:11;;;;;;;4.65;4.18;;;14.70;13.40;;;;;;5100860;28;34517;-79
2022/06/16 03:16:38;;;;;;;4.68;3.35;;;14.70;13.50;;;;;;5107781;27;34014;-78
2022/06/16 03:19:04;;;;;;;4.13;3.60;;;14.60;13.50;;;;;;5110393;27;35833;-78
2022/06/16 03:21:49;;;;;;;5.05;3.67;;;14.60;13.60;;;;;;5126496;27;34286;-77
2022/06/16 03:24:39;;;;;;;4.47;3.70;;;14.50;16.50;;;;;;5126869;27;34157;-77
2022/06/16 03:27:55;;;;;;;4.25;3.55;;;14.50;16.60;;;;;;5127557;27;34035;-77
2022/06/16 03:30:21;;;;;;;5.95;3.75;;;14.40;16.90;;;;;;5127952;27;34307;-78
2022/06/16 03:32:47;;;;;;;5.65;4.05;;;14.40;13.70;;;;;;5110235;27;34472;-77
2022/06/16 03:35:44;;;;;;;4.30;3.90;;;14.30;13.80;;;;;;5119818;27;34189;-77
2022/06/16 03:38:20;;;;;;;4.18;3.50;;;14.30;16.70;;;;;;5124639;27;34085;-77
2022/06/16 03:40:58;;;;;;;6.22;3.80;;;14.30;14.00;;;;;;5109252;27;35570;-78
2022/06/16 03:43:24;;;;;;;5.30;3.63;;;14.30;14.00;;;;;;5119176;27;34398;-78
2022/06/16 03:46:03;;;;;;;5.00;3.92;;;14.30;14.00;;;;;;5120627;27;34816;-77
2022/06/16 03:49:16;;;;;;;7.55;3.90;;;14.30;16.00;;;;;;5108270;28;34293;-78
2022/06/16 03:51:42;;;;;;;3.97;3.58;;;14.30;16.90;;;;;;5114641;27;34483;-77
2022/06/16 03:54:08;;;;;;;7.97;3.97;;;14.30;14.20;;;;;;5093189;27;34036;-77
2022/06/16 03:56:34;;;;;;;5.32;4.05;;;14.30;14.30;;;;;;5127946;27;33727;-77
2022/06/16 03:59:02;;;;;;;4.20;3.80;;;14.30;14.30;;;;;;5111159;27;34268;-76
2022/06/16 04:02:08;;;;;;;6.78;4.25;;;14.30;14.60;;;;;;5128229;27;34937;-77
2022/06/16 04:04:34;;;;;;;4.57;3.95;;;14.30;17.30;;;;;;5127965;27;34029;-77
2022/06/16 04:07:00;;;;;;;4.30;3.90;;;14.30;14.40;;;;;;5109720;27;34177;-76
2022/06/16 04:10:07;;;;;;;6.07;4.28;;;14.30;14.50;;;;;;5127881;27;33998;-77
2022/06/16 04:12:33;;;;;;;4.50;4.00;;;14.30;15.70;;;;;;5093686;28;35662;-77
2022/06/16 04:14:59;;;;;;;4.40;4.00;;;14.40;14.50;;;;;;5118756;27;34246;-77
2022/06/16 04:17:56;;;;;;;4.38;3.97;;;14.40;14.50;;;;;;5126812;27;34287;-77
2022/06/16 04:20:22;;;;;;;4.10;3.78;;;14.40;18.00;;;;;;5125213;27;34479;-77
2022/06/16 04:22:51;;;;;;;4.72;4.10;;;14.40;14.70;;;;;;5123917;27;35121;-77
2022/06/16 04:25:35;;;;;;;4.68;3.80;;;14.40;14.90;;;;;;5108349;28;34178;-76
2022/06/16 04:28:21;;;;;;;7.00;4.18;;;14.40;17.60;;;;;;5117449;27;34271;-77
2022/06/16 04:30:47;;;;;;;5.25;4.28;;;14.40;17.80;;;;;;5119467;27;34074;-77
2022/06/16 04:33:13;;;;;;;4.72;4.22;;;14.40;14.70;;;;;;5109357;28;35513;-77
2022/06/16 04:35:40;;;;;;;4.50;3.97;;;14.40;14.70;;;;;;5102101;27;34262;-77
2022/06/16 04:38:06;;;;;;;4.47;4.07;;;14.40;14.80;;;;;;5128725;27;34123;-77
2022/06/16 04:40:32;;;;;;;5.10;4.60;;;14.40;14.90;;;;;;5129849;27;34160;-78
2022/06/16 04:42:58;;;;;;;6.93;4.75;;;14.40;15.00;;;;;;5130753;27;35492;-81
2022/06/16 04:45:24;;;;;;;4.20;3.80;;;14.50;15.10;;;;;;5129076;27;34141;-78
2022/06/16 04:47:50;;;;;;;7.00;4.55;;;14.50;15.10;;;;;;5129717;27;34158;-78
2022/06/16 04:50:47;;;;;;;6.60;4.60;;;14.60;15.10;;;;;;5130610;27;34360;-77
2022/06/16 04:53:38;;;;;;;5.90;4.45;;;14.60;17.80;;;;;;5112763;27;35515;-77
2022/06/16 04:56:29;;;;;;;4.97;4.47;;;14.70;18.00;;;;;;5113151;27;33667;-77
2022/06/16 04:58:55;;;;;;;6.45;4.55;;;14.70;15.20;;;;;;5096398;28;34682;-77
2022/06/16 05:01:21;;;;;;;6.00;4.80;;;14.80;15.30;;;;;;5085404;28;34780;-78
2022/06/16 05:04:02;;;;;;;5.40;4.75;;;14.80;15.30;;;;;;5088966;28;35869;-77
2022/06/16 05:06:28;;;;;;;7.43;4.38;;;14.90;18.20;;;;;;5073350;28;34108;-77
2022/06/16 05:08:54;;;;;;;5.22;4.72;;;15.00;15.40;;;;;;5072083;28;34200;-77
2022/06/16 05:11:20;;;;;;;5.60;4.78;;;15.10;15.30;;;;;;5079967;28;35736;-78
2022/06/16 05:13:52;;;;;;;6.22;4.97;;;15.20;15.30;;;;;;5057370;28;35556;-78
2022/06/16 05:16:40;;;;;;;9.68;5.20;;;15.30;16.50;;;;;;5089059;28;34133;-77
2022/06/16 05:19:23;;;;;;;6.95;4.72;;;15.50;18.80;;;;;;5087693;28;34373;-78
2022/06/16 05:22:11;;;;;;;5.95;4.65;;;15.90;18.40;;;;;;5068628;28;34254;-78
2022/06/16 05:24:37;;;;;;;6.40;4.78;;;16.70;18.10;;;;;;5082724;28;35924;-77
2022/06/16 05:27:44;;;;;;;7.45;5.07;;;17.50;13.10;;;;;;5103890;28;34282;-78
2022/06/16 05:30:10;;;;;;;7.70;4.65;;;18.60;14.30;;;;;;5081601;28;33823;-77
2022/06/16 05:33:23;;;;;;;5.25;4.22;;;19.60;9.90;;;;;;5071320;28;34123;-78
2022/06/16 05:35:59;;;;;;;5.68;4.15;;;20.70;9.40;;;;;;5100679;28;34796;-78
2022/06/16 05:38:59;;;;;;;5.32;3.58;;;21.70;7.80;;;;;;5085150;28;34182;-79
2022/06/16 05:41:25;;;;;;;6.88;3.95;;;22.50;6.20;;;;;;5089670;28;34321;-77
2022/06/16 05:44:09;;;;;;;5.70;4.03;;;23.20;5.20;;;;;;5071849;28;34298;-77
2022/06/16 05:46:36;;;;;;;9.50;3.92;;;23.90;3.70;;;;;;5080780;28;35823;-78
2022/06/16 05:49:44;;;;;;;6.63;3.60;;;24.40;3.60;;;;;;5084811;28;34347;-78
2022/06/16 05:52:13;;;;;;;4.63;3.47;;;25.10;1.40;;;;;;5094192;28;34401;-78
2022/06/16 05:54:49;;;;;;;5.28;3.55;;;25.70;1.70;;;;;;5060714;28;34421;-78
2022/06/16 05:57:15;;;;;;;7.65;3.72;;;26.20;1.00;;;;;;5105565;28;34231;-78
2022/06/16 05:59:57;;;;;;;4.05;3.60;;;26.50;1.00;;;;;;5104486;27;34122;-78
2022/06/16 06:02:23;;;;;;;8.10;3.63;;;27.00;1.00;;;;;;5091744;28;34149;-78
2022/06/16 06:04:49;;;;;;;4.90;3.75;;;27.40;1.00;;;;;;5082875;28;34222;-78
2022/06/16 06:18:49;;;;;;;4.18;3.63;;;28.30;1.00;;;;;;5068928;28;34174;-78
2022/06/16 06:21:14;;;;;;;3.47;3.17;;;28.20;1.00;;;;;;5036466;28;34058;-78
2022/06/16 06:23:56;;;;;;;4.38;3.88;;;28.30;1.00;;;;;;5061582;28;34214;-78
2022/06/16 06:26:22;;;;;;;5.93;3.70;;;28.60;1.00;;;;;;5051655;28;34438;-78
2022/06/16 06:28:48;;;;;;;5.30;3.47;;;28.70;1.00;;;;;;5054273;28;35676;-78
2022/06/16 06:31:55;;;;;;;8.30;3.80;;;28.90;1.00;;;;;;5051531;28;34453;-78
2022/06/16 06:34:22;;;;;;;6.30;3.78;;;29.20;1.00;;;;;;5062614;28;34341;-78
2022/06/16 06:36:48;;;;;;;7.78;3.60;;;29.30;1.00;;;;;;5067488;28;34192;-78
2022/06/16 06:39:19;;;;;;;5.20;3.40;;;29.50;1.00;;;;;;5052572;28;35766;-77
2022/06/16 06:41:45;;;;;;;7.78;3.67;;;29.70;1.00;;;;;;5046150;28;34211;-78
2022/06/16 06:44:11;;;;;;;4.15;3.20;;;29.90;1.00;;;;;;5033974;28;34144;-78
2022/06/16 06:46:37;;;;;;;7.35;3.33;;;30.00;1.00;;;;;;5050318;28;34259;-78
2022/06/16 06:49:03;;;;;;;4.85;3.00;;;30.40;1.00;;;;;;5033814;28;35568;-78
2022/06/16 06:51:57;;;;;;;4.63;3.10;;;30.70;1.00;;;;;;5095515;28;34324;-78
2022/06/16 06:54:23;;;;;;;4.70;2.80;;;31.00;1.00;;;;;;5103311;27;34148;-78
2022/06/16 06:56:50;;;;;;;3.92;2.78;;;31.00;1.00;;;;;;5111111;27;34452;-78
2022/06/16 06:59:18;;;;;;;4.00;2.72;;;31.30;1.00;;;;;;5128522;27;36816;-78
2022/06/16 07:01:51;;;;;;;6.03;2.80;;;31.60;1.00;;;;;;5099156;27;34340;-78
2022/06/16 07:06:44;;;;;;;6.90;2.72;;;32.10;1.00;;;;;;5098197;27;54926;-78
2022/06/16 07:12:34;;;;;;;3.50;2.50;;;32.50;1.00;;;;;;5094758;27;34151;-78
2022/06/16 07:15:00;;;;;;;5.38;1.83;;;32.40;1.00;;;;;;5109266;28;34148;-78
2022/06/16 07:20:33;;;;;;;2.83;2.17;;;32.40;1.00;;;;;;5108211;28;33839;-79
2022/06/16 07:23:24;;;;;;;5.95;2.25;;;32.20;1.00;;;;;;5100850;28;34255;-78
2022/06/16 07:26:12;;;;;;;6.38;2.45;;;32.20;1.00;;;;;;5105351;28;34303;-79
2022/06/16 07:28:38;;;;;;;3.55;1.88;;;32.40;1.00;;;;;;5105958;27;34003;-80
2022/06/16 07:31:04;;;;;;;1.98;1.73;;;32.40;1.00;;;;;;5099558;27;35943;-77
2022/06/16 07:33:30;;;;;;;14.82;2.30;;;32.50;1.00;;;;;;5105261;27;34334;-78
2022/06/16 07:35:57;;;;;;;7.22;2.00;;;32.60;1.00;;;;;;5104006;27;34346;-77
2022/06/16 07:38:25;;;;;;;4.13;2.17;;;32.80;1.00;;;;;;5106215;27;34093;-77
2022/06/16 07:44:01;;;;;;;5.65;1.98;;;33.30;1.00;;;;;;5104549;28;34423;-78
2022/06/16 07:46:47;;;;;;;4.25;2.00;;;33.40;1.00;;;;;;5097192;27;34190;-78
2022/06/16 07:49:21;;;;;;;3.70;1.65;;;33.40;1.00;;;;;;5107374;27;33961;-80
2022/06/16 07:51:50;;;;;;;4.30;2.00;;;33.30;1.00;;;;;;5115126;27;36024;-78
2022/06/16 07:54:19;;;;;;;2.35;1.60;;;33.40;1.00;;;;;;5108751;27;34134;-77
2022/06/16 07:56:46;;;;;;;7.18;2.03;;;33.40;1.00;;;;;;5107110;27;34223;-78
2022/06/16 08:05:19;;;;;;;2.35;1.42;;;33.50;1.00;;;;;;5110216;27;34439;-77
2022/06/16 08:07:45;;;;;;;4.00;2.10;;;33.40;1.00;;;;;;5064719;28;35265;-75
2022/06/16 08:10:32;;;;;;;4.20;1.70;;;33.50;1.00;;;;;;5080388;28;34368;-76
2022/06/16 08:13:13;;;;;;;2.72;1.70;;;33.80;1.00;;;;;;5080340;28;35803;-76
2022/06/16 08:15:39;;;;;;;3.28;1.75;;;33.80;1.00;;;;;;5072112;28;34134;-75
2022/06/16 08:18:06;;;;;;;3.05;1.85;;;33.60;1.00;;;;;;5068552;28;34520;-77
2022/06/16 08:20:32;;;;;;;5.65;1.88;;;33.50;1.00;;;;;;5084007;27;35810;-80
2022/06/16 08:22:58;;;;;;;4.68;2.22;;;33.30;1.00;;;;;;5084652;28;35675;-76
2022/06/16 08:25:55;;;;;;;2.45;2.03;;;33.10;1.00;;;;;;5080592;28;34074;-77
2022/06/16 08:28:22;;;;;;;5.90;1.80;;;33.10;1.00;;;;;;5060787;28;34213;-78
2022/06/16 08:30:48;;;;;;;2.50;1.90;;;32.90;1.00;;;;;;5070825;28;34587;-77
2022/06/16 08:33:16;;;;;;;3.20;1.95;;;33.00;1.00;;;;;;5081049;28;35641;-77
2022/06/16 08:35:44;;;;;;;4.78;1.65;;;33.10;1.00;;;;;;5090481;28;34059;-76
2022/06/16 08:38:13;;;;;;;1.90;1.70;;;33.10;1.00;;;;;;5069393;28;33886;-76
2022/06/16 08:40:44;;;;;;;2.88;1.65;;;33.20;1.00;;;;;;5071010;28;34031;-76
2022/06/16 08:49:03;;;;;;;2.95;1.70;;;33.30;1.00;;;;;;5073245;28;57591;-77
2022/06/16 08:52:06;;;;;;;2.42;1.80;;;33.50;1.00;;;;;;5091704;28;34572;-77
2022/06/16 08:55:06;;;;;;;2.30;1.60;;;33.60;1.00;;;;;;5086206;28;35850;-79
2022/06/16 09:00:46;;;;;;;3.67;1.48;;;33.50;1.00;;;;;;5100370;27;34307;-75
2022/06/16 09:06:09;;;;;;;5.45;1.73;;;33.40;1.00;;;;;;5105943;27;61874;-78
2022/06/16 09:08:56;;;;;;;1.70;1.40;;;33.30;1.00;;;;;;5105040;28;34157;-76
2022/06/16 09:12:11;;;;;;;3.33;1.73;;;33.50;1.00;;;;;;5086852;28;34202;-79
2022/06/16 09:15:22;;;;;;;3.97;1.60;;;33.50;1.00;;;;;;5061351;28;34103;-78
2022/06/16 09:21:24;;;;;;;2.00;1.52;;;33.40;1.00;;;;;;5025341;28;34323;-77
2022/06/16 09:24:20;;;;;;;1.95;1.42;;;33.40;1.00;;;;;;5027239;28;34167;-75
2022/06/16 09:30:20;;;;;;;4.82;2.00;;;33.50;1.00;;;;;;5021868;28;34366;-76
2022/06/16 09:32:53;;;;;;;1.70;1.30;;;33.50;1.00;;;;;;4991119;28;34288;-77
2022/06/16 09:39:06;;;;;;;3.47;1.30;;;33.40;1.00;;;;;;5072489;28;34245;-76
2022/06/16 09:45:32;;;;;;;4.57;1.63;;;33.70;1.00;;;;;;5082161;27;33834;-76
2022/06/16 09:48:30;;;;;;;2.45;1.52;;;33.80;1.00;;;;;;5054527;28;34308;-76
2022/06/16 09:54:27;;;;;;;2.03;1.52;;;34.10;1.00;;;;;;5070679;27;34305;-76
2022/06/16 09:57:00;;;;;;;2.65;1.30;;;34.10;1.00;;;;;;5095918;28;34311;-78
2022/06/16 09:59:54;;;;;;;2.22;1.10;;;34.10;1.00;;;;;;5117152;27;34423;-76
2022/06/16 10:02:24;;;;;;;1.60;1.40;;;34.20;1.00;;;;;;5100372;28;34280;-75
2022/06/16 10:05:21;;;;;;;1.88;1.30;;;34.20;1.00;;;;;;5095723;27;34157;-77
2022/06/16 10:08:29;;;;;;;1.95;1.45;;;34.40;1.00;;;;;;5065350;28;34330;-76
2022/06/16 10:11:26;;;;;;;3.17;1.20;;;34.50;1.00;;;;;;5067191;28;34280;-78
2022/06/16 10:14:21;;;;;;;2.83;1.30;;;34.50;1.00;;;;;;5043550;28;34113;-76
2022/06/16 10:16:58;;;;;;;1.38;1.13;;;34.70;1.00;;;;;;5064173;28;35568;-76
2022/06/16 10:19:44;;;;;;;2.58;1.20;;;34.90;1.00;;;;;;5065370;28;34570;-77
2022/06/16 10:22:51;;;;;;;4.07;1.55;;;34.70;1.00;;;;;;5077213;28;34455;-76
2022/06/16 10:25:23;;;;;;;22.42;2.75;;;34.60;1.00;;;;;;5101441;27;34128;-75
2022/06/16 10:27:55;;;;;;;2.05;1.35;;;34.30;1.00;;;;;;5075256;28;36065;-74
2022/06/16 10:30:46;;;;;;;1.60;1.20;;;34.20;1.00;;;;;;5104136;28;34286;-78
2022/06/16 10:33:19;;;;;;;2.40;0.90;;;34.40;1.00;;;;;;5082480;28;34018;-76
2022/06/16 10:36:18;;;;;;;4.38;1.20;;;34.40;1.00;;;;;;5089840;28;34201;-79
2022/06/16 10:39:05;;;;;;;1.63;1.30;;;34.60;1.00;;;;;;5096841;28;34269;-77
2022/06/16 10:47:16;;;;;;;2.20;1.35;;;34.50;1.00;;;;;;5098401;28;54925;-76
2022/06/16 10:57:18;;;;;;;1.48;1.23;;;34.30;1.00;;;;;;5065657;28;34211;-76
2022/06/16 11:00:12;;;;;;;3.47;1.40;;;34.20;1.00;;;;;;5056216;28;34268;-76
2022/06/16 11:03:01;;;;;;;2.30;1.40;;;34.20;1.00;;;;;;5036936;28;35988;-77
2022/06/16 11:05:31;;;;;;;4.72;1.10;;;34.20;1.00;;;;;;5032946;28;34078;-76
2022/06/16 11:08:09;;;;;;;1.40;1.20;;;34.10;1.00;;;;;;5028414;28;34412;-77
2022/06/16 11:14:31;;;;;;;2.42;1.10;;;34.20;1.00;;;;;;5064135;27;34248;-75
2022/06/16 11:16:58;;;;;;;1.90;1.15;;;34.20;1.00;;;;;;5095583;28;34481;-78
2022/06/16 11:19:29;;;;;;;2.97;1.10;;;34.10;1.00;;;;;;5088531;28;34215;-77
2022/06/16 11:21:55;;;;;;;4.00;1.20;;;34.00;1.00;;;;;;5092972;27;35528;-78
2022/06/16 11:24:28;;;;;;;1.85;1.20;;;34.00;1.00;;;;;;5107154;27;34710;-77
2022/06/16 11:27:05;;;;;;;1.23;1.05;;;34.00;1.00;;;;;;5068124;28;34444;-76
2022/06/16 11:32:53;;;;;;;1.10;1.00;;;34.10;1.00;;;;;;5097273;27;34113;-78
2022/06/16 11:35:48;;;;;;;1.13;0.93;;;34.10;1.00;;;;;;5120442;27;36033;-77
2022/06/16 11:38:37;;;;;;;2.42;1.27;;;34.10;1.00;;;;;;5128302;27;34114;-76
2022/06/16 11:41:08;;;;;;;1.05;0.98;;;34.20;1.00;;;;;;5108323;27;34204;-77
2022/06/16 11:43:59;;;;;;;2.17;1.02;;;34.30;1.00;;;;;;5117092;27;34225;-76
2022/06/16 11:46:34;;;;;;;2.83;1.15;;;34.60;1.00;;;;;;5125307;27;35495;-76
2022/06/16 11:49:20;;;;;;;4.32;1.20;;;34.70;1.00;;;;;;5071920;27;34376;-77
2022/06/16 11:52:12;;;;;;;0.82;0.82;;;34.70;1.00;;;;;;5114076;27;34266;-77
2022/06/16 11:55:01;;;;;;;3.17;1.10;;;34.60;1.00;;;;;;5091798;27;34542;-76
2022/06/16 11:57:39;;;;;;;1.75;1.20;;;34.70;1.00;;;;;;5127657;27;34327;-76
2022/06/16 12:00:47;;;;;;;1.00;0.90;;;34.80;1.00;;;;;;5120424;27;34374;-77
2022/06/16 12:06:22;;;;;;;1.25;1.15;;;35.00;1.00;;;;;;5119267;27;53060;-76
2022/06/16 12:09:12;;;;;;;1.77;1.10;;;34.90;1.00;;;;;;5054530;28;36333;-77
2022/06/16 12:11:47;;;;;;;2.33;1.10;;;34.90;1.00;;;;;;5061182;28;34230;-76
2022/06/16 12:14:26;;;;;;;1.63;1.10;;;34.80;1.00;;;;;;5065065;28;34422;-77
2022/06/16 12:17:10;;;;;;;1.45;1.10;;;34.80;1.00;;;;;;5061912;28;34414;-76
2022/06/16 12:20:03;;;;;;;1.20;1.10;;;34.90;1.00;;;;;;5073602;28;35665;-77
2022/06/16 12:22:53;;;;;;;1.58;1.17;;;34.90;1.00;;;;;;5056923;28;34598;-76
2022/06/16 12:25:49;;;;;;;1.95;1.25;;;35.00;1.00;;;;;;5062086;28;34508;-76
2022/06/16 12:28:37;;;;;;;2.75;1.23;;;34.90;1.00;;;;;;5066474;28;34329;-75
2022/06/16 12:31:21;;;;;;;1.42;1.05;;;34.80;1.00;;;;;;5076789;28;36107;-76
2022/06/16 12:34:04;;;;;;;1.10;0.98;;;34.90;1.00;;;;;;5055617;28;34148;-78
2022/06/16 12:36:35;;;;;;;1.88;1.20;;;34.90;1.00;;;;;;5068575;28;35215;-76
2022/06/16 12:39:19;;;;;;;1.98;1.00;;;34.90;1.00;;;;;;5081187;27;35049;-77
2022/06/16 12:41:50;;;;;;;1.88;1.30;;;34.60;1.00;;;;;;5101085;27;35661;-77
2022/06/16 12:44:35;;;;;;;1.70;1.15;;;34.40;1.00;;;;;;5090822;27;34249;-76
2022/06/16 12:47:11;;;;;;;1.20;1.10;;;34.30;1.00;;;;;;5112572;27;34369;-77
2022/06/16 12:49:59;;;;;;;2.20;1.13;;;34.20;1.00;;;;;;5090651;27;34351;-76
2022/06/16 12:52:32;;;;;;;1.20;1.10;;;34.00;1.00;;;;;;5124534;27;34655;-77
2022/06/16 12:55:17;;;;;;;1.70;1.40;;;34.00;1.00;;;;;;5095776;27;33756;-76
2022/06/16 12:57:51;;;;;;;1.40;0.90;;;33.90;1.00;;;;;;5129817;27;34183;-78
2022/06/16 13:00:20;;;;;;;1.60;1.20;;;33.90;1.00;;;;;;5096900;28;34423;-77
2022/06/16 13:03:02;;;;;;;2.55;1.00;;;33.80;1.00;;;;;;5118866;27;34182;-76
2022/06/16 13:05:29;;;;;;;1.08;1.00;;;33.80;1.00;;;;;;5129099;27;34074;-76
2022/06/16 13:07:57;;;;;;;2.92;1.05;;;33.80;1.00;;;;;;5104584;28;34184;-77
2022/06/16 13:10:24;;;;;;;1.38;1.10;;;33.70;1.00;;;;;;5105875;27;34310;-76
2022/06/16 13:12:56;;;;;;;1.58;1.10;;;33.70;1.00;;;;;;5126301;27;35941;-76
2022/06/16 13:15:43;;;;;;;1.17;0.90;;;33.70;1.00;;;;;;5125672;27;34139;-73
2022/06/16 13:18:18;;;;;;;2.72;1.00;;;33.70;1.00;;;;;;5113566;27;34197;-77
2022/06/16 13:20:48;;;;;;;2.58;1.30;;;33.90;1.00;;;;;;5107155;27;34360;-76
2022/06/16 13:23:33;;;;;;;1.77;1.17;;;33.90;1.00;;;;;;5114522;27;36295;-77
2022/06/16 13:26:26;;;;;;;1.58;1.00;;;33.90;1.00;;;;;;5104465;27;34464;-75
2022/06/16 13:29:15;;;;;;;1.83;0.77;;;34.00;1.00;;;;;;5080576;27;34055;-77
2022/06/16 13:32:02;;;;;;;2.88;1.00;;;34.00;1.00;;;;;;5087931;28;34344;-77
2022/06/16 13:35:21;;;;;;;1.75;1.08;;;33.90;1.00;;;;;;5084670;27;35673;-78
2022/06/16 13:38:05;;;;;;;2.13;1.10;;;33.80;1.00;;;;;;5045624;28;34214;-76
2022/06/16 13:40:35;;;;;;;2.25;1.30;;;33.70;1.00;;;;;;5084359;28;33751;-76
2022/06/16 13:46:32;;;;;;;1.13;1.00;;;33.70;1.00;;;;;;5100091;27;33936;-74
2022/06/16 13:49:05;;;;;;;0.93;0.90;;;33.70;1.00;;;;;;5108758;27;34538;-79
2022/06/16 13:51:46;;;;;;;1.58;1.10;;;33.60;1.00;;;;;;5092178;28;34084;-77
2022/06/16 13:54:15;;;;;;;2.65;1.02;;;33.60;1.00;;;;;;5091891;28;34629;-77
2022/06/16 13:56:44;;;;;;;1.25;0.90;;;33.60;1.00;;;;;;5092427;28;34189;-76
2022/06/16 13:59:38;;;;;;;1.50;1.00;;;33.60;1.00;;;;;;5088484;28;34175;-77
2022/06/16 14:02:23;;;;;;;2.60;1.00;;;33.70;1.00;;;;;;5078315;27;34094;-75
2022/06/16 14:08:34;;;;;;;1.13;0.80;;;33.90;1.00;;;;;;5105151;27;34218;-76
2022/06/16 14:11:17;;;;;;;2.22;1.10;;;33.70;1.00;;;;;;5089119;28;34105;-78
2022/06/16 14:14:19;;;;;;;3.45;1.20;;;33.60;1.00;;;;;;5101317;28;34090;-77
2022/06/16 14:17:13;;;;;;;1.70;1.08;;;33.50;1.00;;;;;;5083789;28;34561;-76
2022/06/16 14:20:08;;;;;;;1.98;1.10;;;33.40;1.00;;;;;;5058054;28;35518;-75
2022/06/16 14:22:37;;;;;;;2.22;1.13;;;33.40;1.00;;;;;;5048410;28;34273;-78
2022/06/16 14:25:22;;;;;;;0.77;0.77;;;33.40;1.00;;;;;;5047927;28;34090;-79
2022/06/16 14:27:55;;;;;;;1.10;0.98;;;33.30;1.00;;;;;;5039284;28;34501;-78
2022/06/16 14:30:30;;;;;;;3.38;1.13;;;33.10;1.00;;;;;;5043858;28;35565;-77
2022/06/16 14:33:13;;;;;;;1.08;1.00;;;33.10;1.00;;;;;;5046913;28;34219;-76
2022/06/16 14:35:50;;;;;;;2.13;0.80;;;33.10;1.00;;;;;;5030840;28;34412;-79
2022/06/16 14:38:57;;;;;;;1.20;0.90;;;33.10;1.00;;;;;;5031842;28;34422;-77
2022/06/16 14:41:51;;;;;;;1.02;1.02;;;33.30;1.00;;;;;;5045189;28;35947;-77
2022/06/16 14:44:57;;;;;;;1.23;0.80;;;33.30;1.00;;;;;;4997412;28;34229;-78
2022/06/16 14:47:52;;;;;;;1.58;0.88;;;33.30;1.00;;;;;;4987892;28;34187;-77
2022/06/16 14:51:03;;;;;;;2.05;0.85;;;33.30;1.00;;;;;;5020745;28;34117;-77
2022/06/16 14:53:37;;;;;;;3.45;1.00;;;33.20;1.00;;;;;;5027548;28;35518;-77
2022/06/16 14:56:12;;;;;;;1.10;1.00;;;33.30;1.00;;;;;;5026117;28;34268;-78
2022/06/16 14:58:57;;;;;;;1.60;1.25;;;33.40;1.00;;;;;;5039362;28;34378;-76
2022/06/16 15:01:43;;;;;;;1.63;0.93;;;33.40;1.00;;;;;;5021495;28;33787;-77
2022/06/16 15:04:12;;;;;;;4.32;1.15;;;33.40;1.00;;;;;;5029289;28;35954;-76
2022/06/16 15:06:40;;;;;;;2.60;0.90;;;33.30;1.00;;;;;;5040344;28;34144;-77
2022/06/16 15:09:12;;;;;;;0.88;0.80;;;33.10;1.00;;;;;;5056754;28;34342;-77
2022/06/16 15:12:18;;;;;;;2.10;0.90;;;32.90;1.00;;;;;;5069319;28;34462;-76
2022/06/16 15:14:46;;;;;;;2.45;1.23;;;32.90;1.00;;;;;;5104315;28;36003;-78
2022/06/16 15:19:58;;;;;;;2.80;1.10;;;32.50;1.00;;;;;;5096030;28;33820;-78
2022/06/16 15:37:28;;;;;;;1.25;1.15;;;32.30;1.00;;;;;;5042334;28;34277;-77
2022/06/16 15:39:54;;;;;;;1.10;1.00;;;32.20;1.00;;;;;;5024661;28;34213;-77
2022/06/16 15:43:13;;;;;;;1.08;0.80;;;32.10;1.00;;;;;;5061705;28;34203;-78
2022/06/16 15:46:18;;;;;;;1.67;0.90;;;32.10;1.00;;;;;;5062570;28;34095;-80
2022/06/16 15:48:44;;;;;;;2.92;1.05;;;31.90;1.00;;;;;;5052677;28;34453;-78
2022/06/16 15:51:13;;;;;;;1.85;1.00;;;31.90;1.00;;;;;;5046042;28;34314;-76
2022/06/16 15:53:41;;;;;;;3.58;1.00;;;31.80;1.00;;;;;;5063088;28;34101;-76
2022/06/16 15:56:10;;;;;;;2.30;1.10;;;31.80;1.00;;;;;;5063137;28;34573;-76
2022/06/16 15:59:05;;;;;;;2.90;1.10;;;31.90;1.00;;;;;;5037375;28;35992;-76
2022/06/16 16:01:59;;;;;;;2.13;1.20;;;31.90;1.00;;;;;;5039735;28;34032;-75
2022/06/16 16:04:27;;;;;;;1.80;1.10;;;32.00;1.00;;;;;;5061113;28;34118;-81
2022/06/16 16:12:19;;;;;;;2.00;0.93;;;31.80;1.00;;;;;;5105417;27;57692;-78